Tiempo atmosférico en la estación meteorológica de Zumaia, Gipuzkoa (28 m.)



Fecha
DESCASC
Temp. máxima en grados centígrados (hora)
DESCASC
Temp. mínima en grados centígrados (hora)
DESCASC
Temp. media en grados centígrados
DESCASC
Racha de viento máxima en m/sg (hora)
DESCASC
Velocidad máxima media en intervalos de 10 minutos(hora)
DESCASC
Precipitaciones diarias en mm
DESCASC
Precipitaciones de 00:00 a 06:00 en mm
DESCASC
Precipitaciones de 06:00 a 12:00 en mm
DESCASC
Precipitaciones de 12:00 a 18:00 en mm
DESCASC
Precipitaciones de 18:00 a 24:00 en mm
DESCASC
22-04-2019 19.4 (16:40) 11.2 (07:50) 15.3 7.78 (15:20) 5.56 (14:50) 0 0 0 0 0
21-04-2019 17.3 (14:50) 8.9 (07:00) 13.1 4.72 (07:30) 3.33 (01:10) 0 0 0 0 0
20-04-2019 19.9 (13:40) 9.9 (07:20) 14.9 8.89 (11:30) 6.39 (11:30) 0 0 0 0 0
19-04-2019 18.4 (17:10) 12.4 (23:59) 15.4 8.06 (14:30) 4.72 (14:50) 0 0 0 0 0
18-04-2019 20.2 (00:00) 13.9 (00:00) 17.1 11.67 (04:00) 6.94 (07:20) 0.5 0 0 0.5 0
17-04-2019 22.6 (15:30) 11.1 (00:00) 16.9 13.61 (07:50) 8.33 (12:30) 0 0 0 0 0
16-04-2019 17.9 (17:40) 9.5 (00:00) 13.7 8.89 (13:30) 6.11 (15:00) 0.1 0.1 0 0 0
15-04-2019 24.1 (16:50) 10.8 (00:00) 17.5 23.89 (17:10) 15 (17:20) 14.5 0 0 2.8 11.7
14-04-2019 17 (14:50) 9.3 (00:00) 13.2 6.39 (15:20) 5 (15:20) 0 0 0 0 0
13-04-2019 18.1 (16:50) 4.8 (00:00) 11.5 7.78 (17:50) 5 (13:10) 0 0 0 0 0
12-04-2019 17.5 (15:00) 7.8 (00:00) 12.7 9.17 (01:50) 4.72 (15:00) 0 0 0 0 0
11-04-2019 14.8 (18:10) 10 (00:00) 12.4 13.06 (10:50) 8.33 (10:40) 9.8 5.9 2.2 0.8 0.9
10-04-2019 13.5 (16:00) 7.2 (00:00) 10.3 10 (19:00) 6.94 (19:30) 17.2 0 5.9 3.3 8
09-04-2019 19.5 (13:20) 6.7 (00:00) 13.1 11.39 (19:30) 7.78 (17:20) 4.4 0 0 0 4.4
08-04-2019 16.2 (17:40) 8.4 (00:00) 12.3 11.11 (11:40) 8.33 (11:40) 0.6 0 0.2 0.4 0
07-04-2019 16.2 (17:10) 7.9 (00:00) 12.1 9.72 (12:30) 6.67 (14:40) 0.3 0.1 0.2 0 0
06-04-2019 19.8 (15:30) 7 (00:00) 13.4 13.06 (04:00) 8.61 (04:00) 8.1 2.3 0 0 5.8
05-04-2019 18.3 (14:10) 8.1 (00:00) 13.2 16.39 (15:20) 7.78 (15:20) 9 0 0 6.8 2.2
04-04-2019 16.4 (14:40) 4.6 (00:00) 10.5 10.56 (05:40) 7.22 (17:40) 3.2 2.4 0.8 0 0
03-04-2019 12.4 (13:50) 5 (00:00) 8.7 21.94 (21:00) 14.44 (11:40) 5.9 0.5 1 1.5 2.9
02-04-2019 17.1 (17:10) 10 (00:00) 13.6 13.61 (21:30) 8.06 (13:20) 4.7 1.6 0 0 3.1
01-04-2019 17.4 (13:50) 10.7 (00:00) 14 12.22 (03:00) 7.5 (03:00) 4.9 2.5 2.4 0 0
31-03-2019 19 (12:30) 8 (00:00) 13.5 8.61 (14:50) 5 (15:10) 0 0 0 0 0
30-03-2019 25.6 (14:10) 9.9 (00:00) 17.8 20.83 (02:50) 11.94 (00:20) 0 0 0 0 0
29-03-2019 18.8 (15:20) 5.4 (00:00) 12.1 18.89 (23:59) 11.39 (23:59) 0 0 0 0 0
28-03-2019 16.9 (11:10) 6.6 (00:00) 11.7 6.11 (11:10) 3.89 (11:10) 0 0 0 0 0
27-03-2019 15.9 (15:10) 3.9 (00:00) 9.9 7.22 (20:40) 5.28 (17:40) 0 0 0 0 0

Gráficas

Temp. máximas Temp. mínimas Temp. medias Precipitaciones Rachas de viento máximas Velocidades máximas media en intervalos de 10 minutos

Datos horarios

Fecha y hora oficial Temperatura (ºC) Velocidad del viento (km/h) Dirección del viento Racha (km/h) Dirección de racha Precipitación (mm) Presión (hPa) Tendencia (hPa) Humedad (%)
2019-04-25 23:00:00 13.5 21 Noroeste 64 Noroeste 0 -- -- 69
2019-04-25 22:00:00 15.8 8 Oeste 35 Sudoeste 0 -- -- 47
2019-04-25 21:00:00 15.6 18 Sudoeste 54 Sudoeste 0 -- -- 45
2019-04-25 20:00:00 16.8 24 Sur 46 Sudoeste 0 -- -- 42
2019-04-25 19:00:00 19.7 20 Sur 40 Sur 0 -- -- 39
2019-04-25 18:00:00 20.7 9 Sur 42 Sudoeste 0 -- -- 38
2019-04-25 17:00:00 19.9 13 Sudoeste 39 Sudoeste 0 -- -- 36
2019-04-25 16:00:00 20.4 17 Sudoeste 41 Sudoeste 0 -- -- 37
2019-04-25 15:00:00 19.7 19 Sudoeste 46 Sudoeste 0 -- -- 39
2019-04-25 14:00:00 18.3 22 Sudoeste 51 Sudoeste 0 -- -- 42
2019-04-25 13:00:00 16.8 25 Sudoeste 63 Sudoeste 0 -- -- 47
2019-04-25 12:00:00 15.7 27 Sur 61 Sudoeste 0 -- -- 50
2019-04-25 11:00:00 15.8 29 Sudoeste 60 Sudoeste 0 -- -- 51
2019-04-25 10:00:00 15.1 28 Sudoeste 64 Sudoeste 0 -- -- 55
2019-04-25 09:00:00 13.5 33 Sur 60 Sur 0 -- -- 59
2019-04-25 08:00:00 12.4 20 Sur 49 Sudoeste 0 -- -- 64
2019-04-25 07:00:00 11.9 22 Sudoeste 51 Sudoeste 0 -- -- 64
2019-04-25 06:00:00 12 26 Sudoeste 50 Sudoeste 0 -- -- 75
2019-04-25 05:00:00 10.5 12 Sur 30 Sur 0 -- -- 92
2019-04-25 04:00:00 11.7 0 Calma 17 Sudeste 1.6 -- -- 91
2019-04-25 03:00:00 12.7 0 Calma 22 Sudoeste 1.3 -- -- 85
2019-04-25 02:00:00 14 14 Sudoeste 37 Sudoeste 0.4 -- -- 73
2019-04-25 01:00:00 14.5 14 Sudoeste 30 Sudoeste 0.1 -- -- 68
2019-04-25 00:00:00 14.8 11 Sudoeste 36 Sudoeste 0 -- -- 64
2019-04-24 23:00:00 14.9 20 Sudoeste 57 Sur 0 -- -- 69
2019-04-24 22:00:00 13.7 16 Sur 51 Sudoeste 0 -- -- 77
2019-04-24 21:00:00 12.8 26 Sur 61 Sur 1.4 -- -- 87
2019-04-24 20:00:00 13.3 19 Sudoeste 42 Sur 4.7 -- -- 82
2019-04-24 19:00:00 15.2 22 Sur 50 Sur 0.1 -- -- 67
2019-04-24 18:00:00 15.8 22 Sur 57 Sur 0.2 -- -- 66
2019-04-24 17:00:00 19 24 Sur 51 Sur 0 -- -- 48
2019-04-24 16:00:00 17.5 19 Sur 60 Sudoeste 0 -- -- 48
2019-04-24 15:00:00 18.2 23 Sur 59 Sur 0 -- -- 46
2019-04-24 14:00:00 18.5 24 Sur 60 Sur 0 -- -- 48
2019-04-24 13:00:00 15.1 14 Sur 49 Sur 0 -- -- 52
2019-04-24 12:00:00 13.9 28 Sur 55 Sudoeste 0 -- -- 52
2019-04-24 11:00:00 14.1 15 Sur 38 Sudoeste 0 -- -- 53
2019-04-24 10:00:00 13.5 11 Sur 19 Sur 0 -- -- 59
2019-04-24 09:00:00 12.9 0 Calma 36 Sudeste 0 -- -- 59
2019-04-24 08:00:00 11.5 12 Sur 35 Sur 0 -- -- 62
2019-04-24 07:00:00 10.5 18 Sur 35 Sur 0 -- -- 71
2019-04-24 06:00:00 10.1 12 Sur 21 Sur 0 -- -- 79
2019-04-24 05:00:00 10.5 8 Sur 16 Sur 0 -- -- 79
2019-04-24 04:00:00 10.8 5 Sur 14 Sur 0 -- -- 78
2019-04-24 03:00:00 11 6 Sur 17 Sur 0 -- -- 81
2019-04-24 02:00:00 10.8 5 Sur 20 Sur 0 -- -- 88
2019-04-24 01:00:00 10.8 11 Sur 41 Noroeste 0.2 -- -- 89
2019-04-24 00:00:00 11 30 Noroeste 68 Noroeste 0.1 -- -- 89
2019-04-23 23:00:00 13.5 17 Noroeste 43 Noroeste 0 -- -- 86
2019-04-23 22:00:00 13.3 4 Sur 24 Sur 0 -- -- 67
2019-04-23 21:00:00 13.1 17 Sur 28 Sur 0 -- -- 73
2019-04-23 20:00:00 13 13 Sur 22 Sur 0 -- -- 91
2019-04-23 19:00:00 13.6 0 Calma 14 Noroeste 0 -- -- 91
2019-04-23 18:00:00 13.3 5 Noroeste 26 Noroeste 0.2 -- -- 91
2019-04-23 17:00:00 13 13 Noroeste 53 Noroeste 1.8 -- -- 90
2019-04-23 16:00:00 15.9 22 Noroeste 35 Noroeste 0 -- -- 86
2019-04-23 15:00:00 17.6 10 Noroeste 27 Noroeste 0 -- -- 69
2019-04-23 14:00:00 17.8 10 Nordeste 15 Nordeste 0 -- -- 63
2019-04-23 13:00:00 17.6 4 Nordeste 14 Este 0 -- -- 65
2019-04-23 12:00:00 18.4 8 Sur 22 Sur 0 -- -- 58
2019-04-23 11:00:00 19.5 3 Nordeste 19 Sur 0 -- -- 56
2019-04-23 10:00:00 18.5 4 Sudeste 19 Sur 0 -- -- 60
2019-04-23 09:00:00 17.4 10 Sur 30 Sudoeste 0 -- -- 59
2019-04-23 08:00:00 17 12 Sur 39 Sur 0 -- -- 59
2019-04-23 07:00:00 16.8 21 Sur 43 Sur 0 -- -- 57
2019-04-23 06:00:00 16.8 17 Sur 39 Sur 0 -- -- 57
2019-04-23 05:00:00 17.3 19 Sur 45 Sur 0 -- -- 55
2019-04-23 04:00:00 17.6 25 Sur 50 Sur 0 -- -- 54
2019-04-23 03:00:00 17.6 27 Sur 51 Sur 0 -- -- 54
2019-04-23 02:00:00 18 20 Sur 40 Sur 0 -- -- 53
2019-04-23 01:00:00 17.5 9 Sudeste 30 Sur 0 -- -- 55
2019-04-23 00:00:00 17.2 8 Sudeste 19 Sudeste 0 -- -- 59
2019-04-22 23:00:00 16.4 10 Sur 19 Sur 0 -- -- 69
2019-04-22 22:00:00 16 0 Calma 10 Sur 0 -- -- 86
2019-04-22 21:00:00 16.1 7 Sur 9 Sur 0 -- -- 84
2019-04-22 20:00:00 16.2 2 Noroeste 18 Noroeste 0 -- -- 81
2019-04-22 19:00:00 18.1 8 Nordeste 18 Nordeste 0 -- -- 75
2019-04-22 18:00:00 17.7 14 Nordeste 21 Nordeste 0 -- -- 73
2019-04-22 17:00:00 19.1 8 Este 23 Este 0 -- -- 69
2019-04-22 16:00:00 18.6 13 Este 28 Nordeste 0 -- -- 68
2019-04-22 15:00:00 18 14 Nordeste 28 Nordeste 0 -- -- 72
2019-04-22 14:00:00 17.7 18 Nordeste 23 Nordeste 0 -- -- 71
2019-04-22 13:00:00 17.1 12 Nordeste 15 Nordeste 0 -- -- 72
2019-04-22 12:00:00 16.7 0 Calma -- -- 0 -- -- 73
2019-04-22 11:00:00 16.8 0 Calma -- -- 0 -- -- 75
2019-04-22 10:00:00 14.8 0 Calma 9 Sur 0 -- -- 92
2019-04-22 09:00:00 12.4 0 Calma 10 Sur 0 -- -- 96
2019-04-22 08:00:00 11.3 8 Sur 11 Sur 0 -- -- 96
2019-04-22 07:00:00 11.5 7 Sur 11 Sur 0 -- -- 96
2019-04-22 06:00:00 11.7 7 Sur 10 Sur 0 -- -- 95
2019-04-22 05:00:00 11.9 4 Sur 8 Sur 0 -- -- 95
2019-04-22 04:00:00 12 4 Sur 9 Sur 0 -- -- 94
2019-04-22 03:00:00 12.1 7 Sur 9 Sur 0 -- -- 94
2019-04-22 02:00:00 12.4 6 Sur 9 Sur 0 -- -- 93
2019-04-22 01:00:00 12.4 0 Calma 8 Sur 0 -- -- 92
2019-04-22 00:00:00 12.8 5 Sur 8 Sur 0 -- -- 91
2019-04-21 23:00:00 13 0 Calma 6 Sur 0 -- -- 89
2019-04-21 22:00:00 13.7 0 Calma 11 Oeste 0 -- -- 85
2019-04-21 21:00:00 14.2 0 Calma -- -- 0 -- -- 83
2019-04-21 20:00:00 15 0 Calma -- -- 0 -- -- 80
2019-04-21 19:00:00 15 0 Calma 12 Norte 0 -- -- 77
2019-04-21 18:00:00 15.2 4 Nordeste 12 Nordeste 0 -- -- 74
2019-04-21 17:00:00 16.3 10 Nordeste 16 Nordeste 0 -- -- 72
2019-04-21 16:00:00 17.1 2 Noroeste 10 Norte 0 -- -- 72
2019-04-21 15:00:00 17 2 Norte 8 Norte 0 -- -- 70
2019-04-21 14:00:00 16.5 4 Norte 10 Noroeste 0 -- -- 74
2019-04-21 13:00:00 15.5 6 Noroeste 12 Noroeste 0 -- -- 72
2019-04-21 12:00:00 15.5 0 Calma 9 Noroeste 0 -- -- 72
2019-04-21 11:00:00 15.1 0 Calma 8 Noroeste 0 -- -- 76
2019-04-21 10:00:00 12.9 8 Sur 13 Sur 0 -- -- 86
2019-04-21 09:00:00 10.5 9 Sur 14 Sudoeste 0 -- -- 92
2019-04-21 08:00:00 9.3 8 Sur 17 Sur 0 -- -- 92
2019-04-21 07:00:00 9 11 Sur 16 Sur 0 -- -- 92
2019-04-21 06:00:00 9.1 10 Sur 15 Sudoeste 0 -- -- 90
2019-04-21 05:00:00 9.7 12 Sur 14 Sur 0 -- -- 89
2019-04-21 04:00:00 10.2 8 Sur 15 Sur 0 -- -- 86
2019-04-21 03:00:00 10.7 10 Sur 17 Sur 0 -- -- 86
2019-04-21 02:00:00 11 12 Sur 17 Sur 0 -- -- 86
2019-04-21 01:00:00 10.9 11 Sur 15 Sur 0 -- -- 88
2019-04-21 00:00:00 11.6 12 Sur 15 Sur 0 -- -- 87
2019-04-20 23:00:00 12.6 10 Sur 12 Sudoeste 0 -- -- 83
2019-04-20 22:00:00 13.5 6 Sur 8 Sur 0 -- -- 76
2019-04-20 21:00:00 14.5 4 Sudoeste 11 Noroeste 0 -- -- 73
2019-04-20 20:00:00 16.2 5 Noroeste 18 Noroeste 0 -- -- 69
2019-04-20 19:00:00 17.6 8 Noroeste 21 Noroeste 0 -- -- 65
2019-04-20 18:00:00 18.6 13 Noroeste 22 Noroeste 0 -- -- 62
2019-04-20 17:00:00 19 16 Noroeste 21 Noroeste 0 -- -- 62
2019-04-20 16:00:00 18.6 6 Noroeste 13 Noroeste 0 -- -- 65
2019-04-20 15:00:00 17.3 11 Noroeste 17 Norte 0 -- -- 68
2019-04-20 14:00:00 19.7 13 Noroeste 27 Noroeste 0 -- -- 72
2019-04-20 13:00:00 19.2 19 Noroeste 31 Noroeste 0 -- -- 75
2019-04-20 12:00:00 16.3 13 Noroeste 32 Noroeste 0 -- -- 78
2019-04-20 11:00:00 17.4 18 Noroeste 24 Noroeste 0 -- -- 79
2019-04-20 10:00:00 14.4 3 Noroeste 15 Noroeste 0 -- -- 89
2019-04-20 09:00:00 11.8 7 Sur 16 Sur 0 -- -- 96
2019-04-20 08:00:00 10.1 10 Sur 14 Sur 0 -- -- 96
2019-04-20 07:00:00 10.1 9 Sur 24 Sur 0 -- -- 95
2019-04-20 06:00:00 10.7 9 Sur 12 Sur 0 -- -- 94
2019-04-20 05:00:00 11 7 Sur 13 Sur 0 -- -- 93
2019-04-20 04:00:00 11.5 6 Sur 15 Sur 0 -- -- 93
2019-04-20 03:00:00 11.3 11 Sur 18 Sur 0 -- -- 93
2019-04-20 02:00:00 11.3 13 Sur 15 Sur 0 -- -- 93
2019-04-20 01:00:00 11.9 8 Sudoeste 14 Sur 0 -- -- 92
2019-04-20 00:00:00 12.4 8 Sur 10 Sur 0 -- -- 89
2019-04-19 23:00:00 13.6 0 Calma 9 Sudoeste 0 -- -- 85
2019-04-19 22:00:00 13.9 8 Sur 10 Sur 0 -- -- 83
2019-04-19 21:00:00 15.3 0 Calma -- -- 0 -- -- 80
2019-04-19 20:00:00 16.6 0 Calma 8 Noroeste 0 -- -- 79
2019-04-19 19:00:00 17.6 5 Noroeste 12 Noroeste 0 -- -- 76
2019-04-19 18:00:00 17.6 9 Norte 13 Norte 0 -- -- 77
2019-04-19 17:00:00 17.9 6 Nordeste 14 Nordeste 0 -- -- 70
2019-04-19 16:00:00 17.9 4 Nordeste 24 Nordeste 0 -- -- 75
2019-04-19 15:00:00 -- 13 Nordeste 29 Nordeste 0 -- -- --
2019-04-19 14:00:00 17.2 9 Nordeste 13 Norte 0 -- -- 82
2019-04-19 13:00:00 16.4 0 Calma -- -- 0 -- -- 85
2019-04-19 12:00:00 16.5 0 Calma -- -- 0 -- -- 86
2019-04-19 11:00:00 15.2 2 Noroeste 9 Sur 0 -- -- 92
2019-04-19 10:00:00 13.9 0 Calma 10 Sur 0 -- -- 96
2019-04-19 09:00:00 13.2 0 Calma 10 Sudoeste 0 -- -- 97
2019-04-19 08:00:00 13.2 0 Calma 9 Sur 0 -- -- 97
2019-04-19 07:00:00 13.1 6 Sur 9 Sudoeste 0 -- -- 96
2019-04-19 06:00:00 13.3 2 Sudoeste 9 Sur 0 -- -- 96
2019-04-19 05:00:00 13.3 5 Sur 10 Sudoeste 0 -- -- 95
2019-04-19 04:00:00 13.5 3 Sudoeste 8 Noroeste 0 -- -- 95
2019-04-19 03:00:00 13.2 0 Calma 8 Sudoeste 0 -- -- 93
2019-04-19 02:00:00 13.6 2 Sudoeste 13 Noroeste 0 -- -- 93
2019-04-19 01:00:00 13.2 0 Calma -- -- 0 -- -- 90
2019-04-19 00:00:00 13.9 0 Calma -- -- 0 -- -- 87
2019-04-18 23:00:00 14.8 0 Calma 8 Sur 0 -- -- 85
2019-04-18 22:00:00 14.9 3 Sur 10 Sur 0 -- -- 85
2019-04-18 21:00:00 15.1 0 Calma 8 Sur 0 -- -- 81
2019-04-18 20:00:00 15.6 0 Calma 13 Sudeste 0 -- -- 78
2019-04-18 19:00:00 15.7 2 Este 10 Noroeste 0 -- -- 80
2019-04-18 18:00:00 16.8 5 Noroeste 12 Norte 0 -- -- 77
2019-04-18 17:00:00 17.2 9 Noroeste 10 Norte 0 -- -- 78
2019-04-18 16:00:00 17.3 6 Norte 9 Nordeste 0 -- -- 82
2019-04-18 15:00:00 -- 5 Nordeste 10 Nordeste 0 -- -- --
2019-04-18 14:00:00 14.5 6 Norte 17 Noroeste 0.5 -- -- 94
2019-04-18 13:00:00 14.5 3 Noroeste 17 Nordeste 0 -- -- 91
2019-04-18 12:00:00 14.7 0 Calma 22 Nordeste 0 -- -- 87
2019-04-18 11:00:00 15.3 6 Nordeste 13 Nordeste 0 -- -- 78
2019-04-18 10:00:00 17.8 6 Sudoeste 31 Sudoeste 0 -- -- 51
2019-04-18 09:00:00 17.8 17 Sur 38 Sur 0 -- -- 51
2019-04-18 08:00:00 17.8 15 Sur 39 Sur 0 -- -- 50
2019-04-18 07:00:00 18 19 Sur 40 Sur 0 -- -- 50
2019-04-18 06:00:00 18.4 23 Sur 41 Sur 0 -- -- 48
2019-04-18 05:00:00 18.4 15 Sur 35 Sur 0 -- -- 47
2019-04-18 04:00:00 18.4 18 Sur 42 Sur 0 -- -- 48
2019-04-18 03:00:00 18.7 10 Sur 22 Sur 0 -- -- 48
2019-04-18 02:00:00 19.3 6 Sudeste 25 Sudeste 0 -- -- 49
2019-04-18 01:00:00 19.5 5 Sudeste 28 Sudeste 0 -- -- 51
2019-04-18 00:00:00 20.2 8 Sur 18 Sur 0 -- -- 51
2019-04-17 23:00:00 20 7 Oeste 18 Sudoeste 0 -- -- 53
2019-04-17 22:00:00 18.2 5 Nordeste 21 Sur 0 -- -- 61
2019-04-17 21:00:00 20.9 15 Sudeste 26 Sudeste 0 -- -- 48
2019-04-17 20:00:00 20.5 0 Calma 15 Sur 0 -- -- 50
2019-04-17 19:00:00 21.4 10 Sur 19 Sudeste 0 -- -- 49
2019-04-17 18:00:00 21.2 3 Sur 10 Este 0 -- -- 49
2019-04-17 17:00:00 21.2 0 Calma 11 Norte 0 -- -- 46
2019-04-17 16:00:00 21.9 6 Norte 21 Nordeste 0 -- -- 44
2019-04-17 15:00:00 21.7 9 Sur 27 Sur 0 -- -- 45
2019-04-17 14:00:00 20.9 14 Sur 33 Sudeste 0 -- -- 49
2019-04-17 13:00:00 19.5 24 Sudeste 47 Sudeste 0 -- -- 49
2019-04-17 12:00:00 19 21 Sur 37 Sudeste 0 -- -- 52
2019-04-17 11:00:00 18.3 4 Nordeste 32 Sur 0 -- -- 52
2019-04-17 10:00:00 17.8 18 Sur 42 Sudeste 0 -- -- 53
2019-04-17 09:00:00 16.9 4 Este 28 Sur 0 -- -- 55
2019-04-17 08:00:00 16.7 17 Sur 49 Sur 0 -- -- 53
2019-04-17 07:00:00 16.6 13 Sur 45 Sur 0 -- -- 54
2019-04-17 06:00:00 16.4 12 Sudeste 48 Este 0 -- -- 56
2019-04-17 05:00:00 15.9 13 Sudeste 26 Sudeste 0 -- -- 60
2019-04-17 04:00:00 15.2 10 Sudeste 34 Sudeste 0 -- -- 69
2019-04-17 03:00:00 12.4 0 Calma 12 Sudoeste 0 -- -- 96
2019-04-17 02:00:00 11.3 5 Sudoeste 13 Sudoeste 0 -- -- 96
2019-04-17 01:00:00 11.6 8 Sur 14 Sur 0 -- -- 96
2019-04-17 00:00:00 12 10 Sur 16 Sur 0 -- -- 94
2019-04-16 23:00:00 12.7 8 Sur 12 Sudoeste 0 -- -- 92
2019-04-16 22:00:00 13.5 8 Sur 11 Sur 0 -- -- 88
2019-04-16 21:00:00 14.2 0 Calma 22 Este 0 -- -- 83
2019-04-16 20:00:00 15.2 16 Este 23 Este 0 -- -- 78
2019-04-16 19:00:00 16.2 4 Este 23 Este 0 -- -- 74
2019-04-16 18:00:00 17.6 12 Este 22 Nordeste 0 -- -- 69
2019-04-16 17:00:00 16.2 17 Nordeste 26 Nordeste 0 -- -- 72
2019-04-16 16:00:00 16.3 19 Nordeste 30 Nordeste 0 -- -- 73
2019-04-16 15:00:00 15.7 22 Nordeste 31 Nordeste 0 -- -- 72
2019-04-16 14:00:00 15.5 21 Nordeste 32 Nordeste 0 -- -- 72
2019-04-16 13:00:00 15.3 19 Nordeste 24 Nordeste 0 -- -- 72
2019-04-16 12:00:00 15.6 15 Nordeste 19 Nordeste 0 -- -- 73
2019-04-16 11:00:00 13.2 8 Nordeste 12 Nordeste 0 -- -- 88
2019-04-16 10:00:00 14 0 Calma 10 Sur 0 -- -- 99
2019-04-16 09:00:00 11 9 Sur 14 Sur 0 -- -- 99
2019-04-16 08:00:00 9.6 9 Sur 14 Sudoeste 0 -- -- 99
2019-04-16 07:00:00 9.8 9 Sur 14 Sur 0 -- -- 99
2019-04-16 06:00:00 10.3 8 Sur 12 Sur 0 -- -- 98
2019-04-16 05:00:00 10.6 7 Sur 10 Sur 0 -- -- 98
2019-04-16 04:00:00 11.3 6 Sur 8 Sur 0 -- -- 98
2019-04-16 03:00:00 11.9 4 Sudoeste 9 Sur 0 -- -- 97
2019-04-16 02:00:00 12.3 4 Sur 12 Oeste 0 -- -- 97
2019-04-16 01:00:00 12.3 2 Oeste 12 Oeste 0.1 -- -- 98
2019-04-16 00:00:00 12.9 9 Sur 15 Sur 1.3 -- -- 97
2019-04-15 23:00:00 12.9 7 Sur 14 Sur 1 -- -- 95
2019-04-15 22:00:00 13.4 7 Sur 12 Sur 3.1 -- -- 92
2019-04-15 21:00:00 13.9 6 Sudoeste 35 Oeste 1.4 -- -- 85
2019-04-15 20:00:00 14.1 11 Oeste 59 Oeste 0 -- -- 84
2019-04-15 19:00:00 14.5 24 Noroeste 50 Noroeste 4.9 -- -- 97
2019-04-15 18:00:00 15 23 Noroeste 86 Noroeste 2.8 -- -- 95
2019-04-15 17:00:00 23.5 8 Sudoeste 30 Sur 0 -- -- 48
2019-04-15 16:00:00 23.6 13 Sur 25 Sur 0 -- -- 49
2019-04-15 15:00:00 23.2 9 Sur 37 Sudeste 0 -- -- 49
2019-04-15 14:00:00 22.7 12 Sudeste 49 Sudoeste 0 -- -- 50
2019-04-15 13:00:00 23.4 22 Sur 47 Sudoeste 0 -- -- 49
2019-04-15 12:00:00 22.8 23 Sur 39 Sur 0 -- -- 52
2019-04-15 11:00:00 19 7 Sur 30 Sur 0 -- -- 72
2019-04-15 10:00:00 14.2 9 Norte 12 Norte 0 -- -- 92
2019-04-15 09:00:00 13.3 0 Calma 13 Sudoeste 0 -- -- 99
2019-04-15 08:00:00 11.7 3 Sudoeste 12 Sudoeste 0 -- -- 99
2019-04-15 07:00:00 11.8 0 Calma 7 Sudoeste 0 -- -- 99
2019-04-15 06:00:00 11.8 0 Calma 11 Sudoeste 0 -- -- 99
2019-04-15 05:00:00 11.3 5 Sur 13 Sudoeste 0 -- -- 99
2019-04-15 04:00:00 11 9 Sur 12 Sudoeste 0 -- -- 98
2019-04-15 03:00:00 11 8 Sur 13 Sur 0 -- -- 97
2019-04-15 02:00:00 11.3 11 Sur 14 Sur 0 -- -- 95
2019-04-15 01:00:00 11.6 6 Sur 10 Sudoeste 0 -- -- 93
2019-04-15 00:00:00 12 6 Sur 12 Sur 0 -- -- 91
2019-04-14 23:00:00 12.5 0 Calma 8 Sudoeste 0 -- -- 86
2019-04-14 22:00:00 13.3 2 Sudeste 15 Nordeste 0 -- -- 84
2019-04-14 21:00:00 14.1 5 Noroeste 13 Noroeste 0 -- -- 81
2019-04-14 20:00:00 15.7 2 Noroeste 14 Nordeste 0 -- -- 75
2019-04-14 19:00:00 15.6 13 Nordeste 22 Este 0 -- -- 72
2019-04-14 18:00:00 15.7 4 Nordeste 22 Nordeste 0 -- -- 73
2019-04-14 17:00:00 14.7 11 Nordeste 20 Nordeste 0 -- -- 74
2019-04-14 16:00:00 14.6 16 Nordeste 23 Nordeste 0 -- -- 78
2019-04-14 15:00:00 16.9 13 Nordeste 20 Nordeste 0 -- -- 75
2019-04-14 14:00:00 15.8 12 Nordeste 17 Nordeste 0 -- -- 79
2019-04-14 13:00:00 15.6 6 Norte 13 Nordeste 0 -- -- 81
2019-04-14 12:00:00 14.4 9 Nordeste 13 Nordeste 0 -- -- 82
2019-04-14 11:00:00 14.8 0 Calma 7 Sudoeste 0 -- -- 81
2019-04-14 10:00:00 12.3 6 Sudoeste 11 Sur 0 -- -- 86
2019-04-14 09:00:00 10.8 7 Sur 11 Sudoeste 0 -- -- 89
2019-04-14 08:00:00 10.4 8 Sur 12 Sur 0 -- -- 91
2019-04-14 07:00:00 9.9 9 Sur 13 Sur 0 -- -- 93
2019-04-14 06:00:00 9.6 10 Sur 13 Sur 0 -- -- 95
2019-04-14 05:00:00 9.6 9 Sur 11 Sur 0 -- -- 95
2019-04-14 04:00:00 9.4 9 Sur 12 Sur 0 -- -- 95
2019-04-14 03:00:00 9.3 10 Sur 13 Sur 0 -- -- 95
2019-04-14 02:00:00 9.4 11 Sur 13 Sur 0 -- -- 95
2019-04-14 01:00:00 9.8 9 Sur 12 Sur 0 -- -- 95
2019-04-14 00:00:00 9.8 10 Sur 12 Sur 0 -- -- 93
2019-04-13 23:00:00 10.7 8 Sur 10 Sur 0 -- -- 90
2019-04-13 22:00:00 11.8 5 Sur 8 Sudoeste 0 -- -- 84
2019-04-13 21:00:00 13.6 4 Noroeste 8 Norte 0 -- -- 76
2019-04-13 20:00:00 15.5 8 Norte 18 Nordeste 0 -- -- 70
2019-04-13 19:00:00 16.7 10 Este 24 Este 0 -- -- 62
2019-04-13 18:00:00 17 13 Nordeste 28 Este 0 -- -- 59
2019-04-13 17:00:00 17.4 16 Nordeste 26 Nordeste 0 -- -- 57
2019-04-13 16:00:00 16.4 16 Nordeste 25 Nordeste 0 -- -- 60
2019-04-13 15:00:00 15.8 16 Nordeste 26 Nordeste 0 -- -- 62
2019-04-13 14:00:00 17 15 Este 26 Nordeste 0 -- -- 60
2019-04-13 13:00:00 14.3 17 Nordeste 27 Este 0 -- -- 64
2019-04-13 12:00:00 14.1 14 Nordeste 23 Nordeste 0 -- -- 65
2019-04-13 11:00:00 13.7 5 Nordeste 12 Sur 0 -- -- 72
2019-04-13 10:00:00 10.3 9 Sur 16 Sur 0 -- -- 89
2019-04-13 09:00:00 6.3 14 Sur 20 Sur 0 -- -- 96
2019-04-13 08:00:00 4.9 15 Sur 20 Sur 0 -- -- 96
2019-04-13 07:00:00 4.9 16 Sur 19 Sur 0 -- -- 96
2019-04-13 06:00:00 5.2 14 Sur 19 Sur 0 -- -- 95
2019-04-13 05:00:00 5.6 15 Sur 19 Sur 0 -- -- 95
2019-04-13 04:00:00 6 15 Sur 18 Sur 0 -- -- 94
2019-04-13 03:00:00 6.3 14 Sur 17 Sur 0 -- -- 94
2019-04-13 02:00:00 6.6 14 Sur 18 Sur 0 -- -- 93
2019-04-13 01:00:00 7.1 13 Sur 15 Sur 0 -- -- 93
2019-04-13 00:00:00 7.8 12 Sur 15 Sur 0 -- -- 91
2019-04-12 23:00:00 8.7 11 Sur 14 Sur 0 -- -- 86
2019-04-12 22:00:00 10 7 Sur 9 Sur 0 -- -- 76
2019-04-12 21:00:00 11.9 0 Calma 10 Norte 0 -- -- 67
2019-04-12 20:00:00 14.7 7 Norte 12 Norte 0 -- -- 63
2019-04-12 19:00:00 15.5 8 Norte 15 Norte 0 -- -- 63
2019-04-12 18:00:00 15.6 10 Norte 19 Noroeste 0 -- -- 66
2019-04-12 17:00:00 15.6 14 Noroeste 18 Noroeste 0 -- -- 66
2019-04-12 16:00:00 16.4 13 Noroeste 23 Noroeste 0 -- -- 65
2019-04-12 15:00:00 17.1 17 Noroeste 22 Noroeste 0 -- -- 66
2019-04-12 14:00:00 16.4 15 Noroeste 20 Noroeste 0 -- -- 70
2019-04-12 13:00:00 15.8 13 Noroeste 17 Noroeste 0 -- -- 71
2019-04-12 12:00:00 14.9 13 Noroeste 19 Noroeste 0 -- -- 74
2019-04-12 11:00:00 13.6 13 Noroeste 20 Noroeste 0 -- -- 82
2019-04-12 10:00:00 12.2 10 Noroeste 19 Noroeste 0 -- -- 84
2019-04-12 09:00:00 11.5 9 Noroeste 21 Noroeste 0 -- -- 85
2019-04-12 08:00:00 11.3 5 Oeste 16 Noroeste 0 -- -- 84
2019-04-12 07:00:00 11.3 8 Oeste 24 Noroeste 0 -- -- 85
2019-04-12 06:00:00 11.4 10 Noroeste 23 Noroeste 0 -- -- 85
2019-04-12 05:00:00 11.5 12 Noroeste 22 Noroeste 0 -- -- 85
2019-04-12 04:00:00 11.4 9 Noroeste 22 Noroeste 0 -- -- 84
2019-04-12 03:00:00 11.4 10 Noroeste 27 Noroeste 0 -- -- 83
2019-04-12 02:00:00 11.4 9 Noroeste 33 Noroeste 0 -- -- 83
2019-04-12 01:00:00 11.4 7 Noroeste 26 Noroeste 0 -- -- 82
2019-04-12 00:00:00 11.2 6 Oeste 27 Noroeste 0.4 -- -- 88
2019-04-11 23:00:00 11.5 17 Noroeste 32 Noroeste 0.5 -- -- 86
2019-04-11 22:00:00 11.9 19 Noroeste 33 Noroeste 0 -- -- 83
2019-04-11 21:00:00 12 8 Oeste 30 Noroeste 0 -- -- 79
2019-04-11 20:00:00 12.6 21 Noroeste 34 Noroeste 0 -- -- 77
2019-04-11 19:00:00 13.1 23 Noroeste 33 Noroeste 0 -- -- 76
2019-04-11 18:00:00 14.5 22 Noroeste 33 Noroeste 0 -- -- 75
2019-04-11 17:00:00 14.5 21 Noroeste 33 Noroeste 0 -- -- 81
2019-04-11 16:00:00 12.9 26 Noroeste 39 Noroeste 0 -- -- 89
2019-04-11 15:00:00 13 26 Noroeste 39 Noroeste 0.1 -- -- 88
2019-04-11 14:00:00 12.7 28 Noroeste 40 Noroeste 0.2 -- -- 91
2019-04-11 13:00:00 11.2 17 Noroeste 43 Noroeste 0.5 -- -- 89
2019-04-11 12:00:00 11.7 14 Noroeste 36 Noroeste 0 -- -- 88
2019-04-11 11:00:00 11.4 25 Noroeste 47 Noroeste 1.1 -- -- 89
2019-04-11 10:00:00 11 9 Oeste 27 Noroeste 0.3 -- -- 90
2019-04-11 09:00:00 10.9 12 Noroeste 31 Noroeste 0.7 -- -- 87
2019-04-11 08:00:00 10.9 7 Oeste 21 Oeste 0 -- -- 86
2019-04-11 07:00:00 10.9 10 Oeste 25 Oeste 0.1 -- -- 86
2019-04-11 06:00:00 11 6 Oeste 20 Noroeste 0 -- -- 87
2019-04-11 05:00:00 11 8 Oeste 25 Noroeste 0 -- -- 89
2019-04-11 04:00:00 11.1 15 Noroeste 35 Noroeste 0 -- -- 95
2019-04-11 03:00:00 11 12 Noroeste 24 Noroeste 2 -- -- 94
2019-04-11 02:00:00 10.5 9 Sur 24 Oeste 3.9 -- -- 90
2019-04-11 01:00:00 10.9 10 Noroeste 32 Noroeste 0 -- -- 87
2019-04-11 00:00:00 11.2 17 Noroeste 31 Noroeste 0 -- -- 90
2019-04-10 23:00:00 10.4 12 Oeste 35 Noroeste 7.9 -- -- 88
2019-04-10 22:00:00 12.3 21 Noroeste 34 Noroeste 0 -- -- 88
2019-04-10 21:00:00 12 24 Noroeste 33 Noroeste 0 -- -- 87
2019-04-10 20:00:00 12.5 21 Noroeste 32 Noroeste 0 -- -- 89
2019-04-10 19:00:00 12.4 22 Noroeste 36 Noroeste 0.1 -- -- 92
2019-04-10 18:00:00 11.1 7 Sudoeste 28 Oeste 1.8 -- -- 89
2019-04-10 17:00:00 12.3 11 Noroeste 29 Noroeste 0 -- -- 76
2019-04-10 16:00:00 13.3 5 Noroeste 14 Oeste 0 -- -- 78
2019-04-10 15:00:00 11.1 4 Sudoeste 12 Sudoeste 0 -- -- 87
2019-04-10 14:00:00 11 0 Calma 23 Noroeste 0 -- -- 94
2019-04-10 13:00:00 10.5 2 Sudoeste 23 Sudoeste 1.5 -- -- 95
2019-04-10 12:00:00 10.6 18 Sudeste 32 Sudeste 5.9 -- -- 91
2019-04-10 11:00:00 10.8 4 Oeste 14 Noroeste 0 -- -- 94
2019-04-10 10:00:00 9.6 6 Sudoeste 13 Sudoeste 0 -- -- 98
2019-04-10 09:00:00 8.2 11 Sur 16 Sudoeste 0 -- -- 98
2019-04-10 08:00:00 7.6 12 Sudoeste 17 Sudoeste 0 -- -- 98
2019-04-10 07:00:00 7.2 12 Sur 15 Sur 0 -- -- 97
2019-04-10 06:00:00 7.8 12 Sur 15 Sur 0 -- -- 96
2019-04-10 05:00:00 8.3 9 Sur 14 Sur 0 -- -- 96
2019-04-10 04:00:00 8.9 9 Sur 13 Sur 0 -- -- 96
2019-04-10 03:00:00 9.2 9 Sur 14 Sur 0 -- -- 95
2019-04-10 02:00:00 9.3 10 Sur 13 Sur 0 -- -- 95
2019-04-10 01:00:00 9.6 11 Sur 17 Sur 0 -- -- 95
2019-04-10 00:00:00 9.8 9 Sur 14 Sur 0 -- -- 95
2019-04-09 23:00:00 9.7 9 Sur 20 Sur 0 -- -- 95
2019-04-09 22:00:00 10.2 12 Sur 19 Sur 0.1 -- -- 94
2019-04-09 21:00:00 10.8 13 Sur 27 Sudoeste 1.4 -- -- 89
2019-04-09 20:00:00 11.1 12 Sudoeste 41 Noroeste 2.6 -- -- 88
2019-04-09 19:00:00 12.9 25 Noroeste 35 Noroeste 0.3 -- -- 88
2019-04-09 18:00:00 13 15 Noroeste 38 Noroeste 0 -- -- 85
2019-04-09 17:00:00 15.5 13 Noroeste 21 Noroeste 0 -- -- 71
2019-04-09 16:00:00 17.1 13 Nordeste 21 Nordeste 0 -- -- 57
2019-04-09 15:00:00 17.8 9 Este 17 Nordeste 0 -- -- 59
2019-04-09 14:00:00 15.7 11 Nordeste 21 Nordeste 0 -- -- 60
2019-04-09 13:00:00 19.3 0 Calma 21 Sudoeste 0 -- -- 48
2019-04-09 12:00:00 19.4 9 Sur 27 Sudoeste 0 -- -- 49
2019-04-09 11:00:00 17.8 9 Sur 28 Sudoeste 0 -- -- 52
2019-04-09 10:00:00 15.4 16 Sur 27 Sudoeste 0 -- -- 58
2019-04-09 09:00:00 12.6 14 Sur 32 Sudoeste 0 -- -- 67
2019-04-09 08:00:00 9.7 12 Sur 23 Sur 0 -- -- 81
2019-04-09 07:00:00 8 0 Calma 15 Sudoeste 0 -- -- 92
2019-04-09 06:00:00 6.7 8 Sur 14 Sudoeste 0 -- -- 96
2019-04-09 05:00:00 7.1 10 Sur 15 Sur 0 -- -- 94
2019-04-09 04:00:00 7.5 10 Sur 16 Sur 0 -- -- 93
2019-04-09 03:00:00 7.8 12 Sur 17 Sur 0 -- -- 93
2019-04-09 02:00:00 7.9 10 Sur 16 Sur 0 -- -- 93
2019-04-09 01:00:00 8.2 12 Sur 17 Sur 0 -- -- 92
2019-04-09 00:00:00 8.4 13 Sur 15 Sur 0 -- -- 91
2019-04-08 23:00:00 9.2 10 Sur 13 Sur 0 -- -- 88
2019-04-08 22:00:00 10.2 9 Sur 12 Sur 0 -- -- 82
2019-04-08 21:00:00 12.2 4 Sur 10 Nordeste 0 -- -- 74
2019-04-08 20:00:00 14.6 8 Nordeste 10 Nordeste 0 -- -- 67
2019-04-08 19:00:00 14.4 5 Noroeste 11 Noroeste 0 -- -- 68
2019-04-08 18:00:00 15.5 5 Noroeste 9 Noroeste 0 -- -- 59
2019-04-08 17:00:00 15.6 2 Noroeste 15 Noroeste 0 -- -- 62
2019-04-08 16:00:00 15.7 0 Calma 9 Sudeste 0.1 -- -- 70
2019-04-08 15:00:00 15.6 2 Sur 11 Sudoeste 0 -- -- 73
2019-04-08 14:00:00 14.3 4 Oeste 27 Noroeste 0.2 -- -- 78
2019-04-08 13:00:00 13.4 8 Oeste 36 Noroeste 0.1 -- -- 82
2019-04-08 12:00:00 13 25 Noroeste 40 Noroeste 0.2 -- -- 89
2019-04-08 11:00:00 14.6 18 Noroeste 29 Noroeste 0 -- -- 72
2019-04-08 10:00:00 14.3 12 Noroeste 31 Oeste 0 -- -- 69
2019-04-08 09:00:00 13.6 13 Sur 28 Sur 0 -- -- 71
2019-04-08 08:00:00 13.6 15 Sur 27 Sur 0 -- -- 68
2019-04-08 07:00:00 13.7 17 Sur 32 Sur 0 -- -- 64
2019-04-08 06:00:00 14 20 Sur 36 Sur 0 -- -- 61
2019-04-08 05:00:00 13.6 21 Sur 35 Sur 0 -- -- 61
2019-04-08 04:00:00 13.2 21 Sur 35 Sur 0 -- -- 59
2019-04-08 03:00:00 12.8 15 Sur 28 Sur 0 -- -- 58
2019-04-08 02:00:00 13.1 14 Sur 32 Sur 0 -- -- 58
2019-04-08 01:00:00 13.3 19 Sudoeste 33 Sudoeste 0 -- -- 59
2019-04-08 00:00:00 11 16 Sur 32 Sudoeste 0 -- -- 77
2019-04-07 23:00:00 9.7 9 Sur 14 Sur 0 -- -- 89
2019-04-07 22:00:00 10.3 6 Sur 9 Sur 0 -- -- 83
2019-04-07 21:00:00 11.5 5 Sudeste 14 Sudeste 0 -- -- 75
2019-04-07 20:00:00 12.6 7 Este 18 Este 0 -- -- 70
2019-04-07 19:00:00 13.4 10 Este 22 Nordeste 0 -- -- 67
2019-04-07 18:00:00 15.4 10 Nordeste 17 Norte 0 -- -- 62
2019-04-07 17:00:00 15.8 10 Norte 21 Noroeste 0 -- -- 63
2019-04-07 16:00:00 14.2 17 Noroeste 30 Noroeste 0 -- -- 66
2019-04-07 15:00:00 13.3 19 Noroeste 33 Noroeste 0 -- -- 69
2019-04-07 14:00:00 14.4 23 Noroeste 31 Noroeste 0 -- -- 68
2019-04-07 13:00:00 12.5 18 Noroeste 35 Noroeste 0 -- -- 70
2019-04-07 12:00:00 11.7 7 Oeste 23 Sudoeste 0 -- -- 70
2019-04-07 11:00:00 10.6 6 Oeste 27 Sudoeste 0.2 -- -- 75
2019-04-07 10:00:00 10.2 9 Sudoeste 25 Sudoeste 0 -- -- 74
2019-04-07 09:00:00 9.8 10 Sudoeste 26 Sudoeste 0 -- -- 73
2019-04-07 08:00:00 9.6 8 Sudoeste 27 Sudoeste 0 -- -- 74
2019-04-07 07:00:00 9.4 9 Sudoeste 26 Sudoeste 0 -- -- 76
2019-04-07 06:00:00 8 6 Sudoeste 15 Sudoeste 0 -- -- 96
2019-04-07 05:00:00 8.2 0 Calma 9 Sur 0 -- -- 95
2019-04-07 04:00:00 8.5 6 Sur 8 Sur 0 -- -- 92
2019-04-07 03:00:00 8.9 4 Sur 14 Sudoeste 0.1 -- -- 87
2019-04-07 02:00:00 8.8 4 Oeste 24 Noroeste 0 -- -- 87
2019-04-07 01:00:00 8.7 5 Oeste 17 Noroeste 0 -- -- 96
2019-04-07 00:00:00 8.6 8 Sur 15 Sur 0 -- -- 97
2019-04-06 23:00:00 8.5 9 Sur 15 Sur 0.4 -- -- 95
2019-04-06 22:00:00 9.3 10 Sur 31 Noroeste 1.3 -- -- 92
2019-04-06 21:00:00 9 10 Oeste 40 Noroeste 4.1 -- -- 84
2019-04-06 20:00:00 12.6 12 Nordeste 26 Nordeste 0 -- -- 71
2019-04-06 19:00:00 13.6 15 Este 31 Nordeste 0 -- -- 68
2019-04-06 18:00:00 14.4 13 Este 36 Nordeste 0 -- -- 64
2019-04-06 17:00:00 17.7 0 Calma 30 Sur 0 -- -- 46
2019-04-06 16:00:00 17.5 16 Sudoeste 33 Sur 0 -- -- 42
2019-04-06 15:00:00 19 21 Sur 42 Sudoeste 0 -- -- 44
2019-04-06 14:00:00 16.4 16 Sudoeste 35 Sudoeste 0 -- -- 45
2019-04-06 13:00:00 16.2 12 Sudoeste 40 Sudoeste 0 -- -- 46
2019-04-06 12:00:00 15.1 12 Sur 29 Sur 0 -- -- 50
2019-04-06 11:00:00 14.5 10 Sur 26 Sudoeste 0 -- -- 60
2019-04-06 10:00:00 10.6 12 Sur 23 Sur 0 -- -- 80
2019-04-06 09:00:00 7.3 14 Sur 21 Sur 0 -- -- 97
2019-04-06 08:00:00 7.3 11 Sur 19 Sur 0 -- -- 98
2019-04-06 07:00:00 7.9 10 Sur 18 Sur 0 -- -- 97
2019-04-06 06:00:00 8.2 11 Sur 15 Sur 0.1 -- -- 95
2019-04-06 05:00:00 9 4 Sudoeste 35 Noroeste 2.1 -- -- 93
2019-04-06 04:00:00 9.1 31 Noroeste 47 Noroeste 0.1 -- -- 92
2019-04-06 03:00:00 8.2 8 Sur 14 Sur 0 -- -- 95
2019-04-06 02:00:00 8.3 10 Sur 19 Sur 0 -- -- 95
2019-04-06 01:00:00 8.3 11 Sur 16 Sur 0 -- -- 95
2019-04-06 00:00:00 8.1 12 Sur 20 Sur 0 -- -- 95
2019-04-05 23:00:00 8.4 14 Sur 20 Sur 0 -- -- 95
2019-04-05 22:00:00 9.3 9 Sur 30 Norte 0.8 -- -- 93
2019-04-05 21:00:00 8.9 12 Sur 25 Sur 0.8 -- -- 94
2019-04-05 20:00:00 8.9 9 Sur 21 Sur 0 -- -- 94
2019-04-05 19:00:00 9.5 12 Sur 27 Sudoeste 0.6 -- -- 94
2019-04-05 18:00:00 9 15 Sur 27 Sur 2.2 -- -- 93
2019-04-05 17:00:00 9.7 17 Sur 29 Sudoeste 1.4 -- -- 87
2019-04-05 16:00:00 10.7 12 Sudoeste 59 Sudoeste 3.2 -- -- 76
2019-04-05 15:00:00 15 23 Sur 42 Sudoeste 0 -- -- 54
2019-04-05 14:00:00 17.2 13 Sur 31 Sudoeste 0 -- -- 52
2019-04-05 13:00:00 14.4 17 Sur 39 Sudoeste 0 -- -- 55
2019-04-05 12:00:00 13.6 18 Sur 35 Sur 0 -- -- 55
2019-04-05 11:00:00 13.4 21 Sur 42 Sur 0 -- -- 53
2019-04-05 10:00:00 13.1 22 Sur 40 Sur 0 -- -- 53
2019-04-05 09:00:00 12.5 19 Sur 36 Sur 0 -- -- 52
2019-04-05 08:00:00 12.5 15 Sur 29 Sur 0 -- -- 50
2019-04-05 07:00:00 12.5 12 Sur 35 Sur 0 -- -- 48
2019-04-05 06:00:00 12.5 14 Sur 32 Sur 0 -- -- 47
2019-04-05 05:00:00 12.2 14 Sur 28 Sur 0 -- -- 50
2019-04-05 04:00:00 11.7 5 Sur 17 Sur 0 -- -- 52
2019-04-05 03:00:00 11.6 8 Sur 19 Sur 0 -- -- 53
2019-04-05 02:00:00 12.1 4 Sur 29 Sur 0 -- -- 52
2019-04-05 01:00:00 12.5 12 Sudoeste 37 Sudoeste 0 -- -- 49
2019-04-05 00:00:00 13.8 13 Sudoeste 30 Sudoeste 0 -- -- 43
2019-04-04 23:00:00 10.7 5 Sur 15 Oeste 0 -- -- 72
2019-04-04 22:00:00 11.6 0 Calma 8 Sudoeste 0 -- -- 73
2019-04-04 21:00:00 11.6 0 Calma 8 Sudeste 0 -- -- 71
2019-04-04 20:00:00 12.4 5 Este 36 Este 0 -- -- 69
2019-04-04 19:00:00 12.3 19 Este 35 Este 0 -- -- 66
2019-04-04 18:00:00 12.7 19 Este 36 Este 0 -- -- 63
2019-04-04 17:00:00 12.6 24 Nordeste 37 Nordeste 0 -- -- 58
2019-04-04 16:00:00 13.6 17 Nordeste 30 Nordeste 0 -- -- 55
2019-04-04 15:00:00 15.5 9 Norte 19 Norte 0 -- -- 52
2019-04-04 14:00:00 15 3 Sudoeste 21 Sudoeste 0 -- -- 52
2019-04-04 13:00:00 13.4 4 Oeste 28 Sudoeste 0 -- -- 56
2019-04-04 12:00:00 12.5 4 Sudoeste 23 Sur 0 -- -- 62
2019-04-04 11:00:00 9.6 9 Sudoeste 26 Sudoeste 0 -- -- 67
2019-04-04 10:00:00 9.4 8 Sudoeste 29 Sudoeste 0 -- -- 72
2019-04-04 09:00:00 6.7 12 Sudoeste 32 Sudoeste 0 -- -- 84
2019-04-04 08:00:00 4.7 11 Sur 20 Sur 0 -- -- 92
2019-04-04 07:00:00 5 8 Sudoeste 22 Sur 0.8 -- -- 91
2019-04-04 06:00:00 5.5 10 Oeste 38 Sudoeste 1.7 -- -- 86
2019-04-04 05:00:00 5.8 13 Sudoeste 37 Sudoeste 0 -- -- 80
2019-04-04 04:00:00 6.1 11 Sudoeste 32 Sudoeste 0 -- -- 82
2019-04-04 03:00:00 5.9 14 Sur 27 Noroeste 0.2 -- -- 86
2019-04-04 02:00:00 6 12 Sudoeste 36 Sudoeste 0.1 -- -- 82
2019-04-04 01:00:00 6 15 Sudoeste 34 Sudoeste 0.4 -- -- 86
2019-04-04 00:00:00 5.1 14 Sur 38 Sudoeste 1.1 -- -- 90
2019-04-03 23:00:00 5.3 14 Sur 44 Noroeste 0.7 -- -- 87
2019-04-03 22:00:00 5.4 8 Sur 77 Noroeste 0.7 -- -- 86
2019-04-03 21:00:00 7.3 32 Noroeste 79 Noroeste 0 -- -- 76
2019-04-03 20:00:00 7.5 12 Sudoeste 60 Noroeste 0.4 -- -- 79
2019-04-03 19:00:00 9.1 4 Oeste 30 Sudoeste 0 -- -- 75
2019-04-03 18:00:00 9.3 5 Sudoeste 57 Noroeste 1.4 -- -- 80
2019-04-03 17:00:00 9.6 19 Noroeste 48 Noroeste 0.1 -- -- 71
2019-04-03 16:00:00 9.2 6 Oeste 63 Noroeste 0 -- -- 71
2019-04-03 15:00:00 9.9 9 Noroeste 52 Noroeste 0 -- -- 71
2019-04-03 14:00:00 10.4 23 Noroeste 57 Oeste 0 -- -- 71
2019-04-03 13:00:00 10.8 4 Oeste 29 Oeste 0 -- -- 73
2019-04-03 12:00:00 7.8 10 Oeste 73 Noroeste 0.7 -- -- 86
2019-04-03 11:00:00 9.1 14 Noroeste 49 Noroeste 0.1 -- -- 81
2019-04-03 10:00:00 9.3 9 Sudoeste 30 Oeste 0 -- -- 80
2019-04-03 09:00:00 8.5 6 Sudoeste 49 Noroeste 0.1 -- -- 85
2019-04-03 08:00:00 9.3 23 Noroeste 54 Noroeste 0.1 -- -- 84
2019-04-03 07:00:00 9.4 8 Oeste 37 Noroeste 0 -- -- 85
2019-04-03 06:00:00 9.6 10 Noroeste 45 Noroeste 0 -- -- 82
2019-04-03 05:00:00 10.2 9 Sudoeste 24 Sudoeste 0 -- -- 77
2019-04-03 04:00:00 10.5 6 Sudoeste 21 Sudoeste 0 -- -- 74
2019-04-03 03:00:00 10.3 8 Oeste 27 Noroeste 0 -- -- 76
2019-04-03 02:00:00 9.9 13 Noroeste 36 Noroeste 0.4 -- -- 90
2019-04-03 01:00:00 10.5 8 Oeste 45 Noroeste 0.1 -- -- 86
2019-04-03 00:00:00 10.5 3 Oeste 46 Noroeste 0.6 -- -- 89
2019-04-02 23:00:00 11.3 4 Oeste 20 Oeste 0.4 -- -- 92
2019-04-02 22:00:00 11.6 10 Oeste 49 Noroeste 1.8 -- -- 93
2019-04-02 21:00:00 12.4 23 Noroeste 35 Noroeste 0.3 -- -- 88
2019-04-02 20:00:00 13.4 23 Noroeste 33 Noroeste 0 -- -- 82
2019-04-02 19:00:00 13.5 22 Noroeste 33 Noroeste 0 -- -- 77
2019-04-02 18:00:00 14.6 18 Noroeste 26 Noroeste 0 -- -- 70
2019-04-02 17:00:00 16.8 21 Noroeste 33 Noroeste 0 -- -- 69
2019-04-02 16:00:00 15.5 26 Noroeste 37 Noroeste 0 -- -- 72
2019-04-02 15:00:00 16.5 25 Noroeste 38 Noroeste 0 -- -- 72
2019-04-02 14:00:00 15.4 20 Noroeste 39 Noroeste 0 -- -- 75
2019-04-02 13:00:00 14.8 22 Noroeste 37 Noroeste 0 -- -- 78
2019-04-02 12:00:00 14.4 10 Noroeste 19 Noroeste 0 -- -- 75
2019-04-02 11:00:00 13.7 0 Calma 19 Noroeste 0 -- -- 82
2019-04-02 10:00:00 13.3 12 Noroeste 19 Oeste 0 -- -- 98
2019-04-02 09:00:00 10.7 8 Sur 12 Sur 0 -- -- 99
2019-04-02 08:00:00 10.1 9 Sur 12 Sur 0 -- -- 99
2019-04-02 07:00:00 10.5 9 Sur 12 Sur 0 -- -- 99
2019-04-02 06:00:00 10.7 7 Sur 10 Sudoeste 0 -- -- 98
2019-04-02 05:00:00 11.5 0 Calma 10 Sur 0 -- -- 98
2019-04-02 04:00:00 11.7 6 Sur 10 Sur 0 -- -- 97
2019-04-02 03:00:00 12 0 Calma 8 Sur 0.1 -- -- 96
2019-04-02 02:00:00 12.2 0 Calma 6 Sudoeste 1.5 -- -- 94
2019-04-02 01:00:00 12.5 0 Calma -- -- 0 -- -- 92
2019-04-02 00:00:00 12.6 0 Calma -- -- 0 -- -- 92
2019-04-01 23:00:00 12.6 0 Calma -- -- 0 -- -- 92
2019-04-01 22:00:00 12.8 0 Calma -- -- 0 -- -- 92
2019-04-01 21:00:00 13.5 3 Nordeste 10 Nordeste 0 -- -- 92
2019-04-01 20:00:00 13.8 0 Calma -- -- 0 -- -- 88
2019-04-01 19:00:00 14.6 0 Calma 14 Nordeste 0 -- -- 82
2019-04-01 18:00:00 15.4 0 Calma 15 Este 0 -- -- 71
2019-04-01 17:00:00 15.4 6 Sudeste 17 Este 0 -- -- 72
2019-04-01 16:00:00 14.9 10 Nordeste 22 Nordeste 0 -- -- 78
2019-04-01 15:00:00 16 5 Nordeste 24 Este 0 -- -- 73
2019-04-01 14:00:00 16.3 16 Este 23 Este 0 -- -- 73
2019-04-01 13:00:00 13.5 14 Este 21 Este 0 -- -- 93
2019-04-01 12:00:00 12.7 0 Calma 9 Sur 0 -- -- 98
2019-04-01 11:00:00 11.9 8 Sur 11 Sur 0.2 -- -- 98
2019-04-01 10:00:00 11.5 0 Calma 8 Sudoeste 0.6 -- -- 98
2019-04-01 09:00:00 10.9 0 Calma 6 Sur 0.3 -- -- 96
2019-04-01 08:00:00 11 0 Calma 7 Sur 0.5 -- -- 94
2019-04-01 07:00:00 10.8 8 Sur 20 Sur 0.8 -- -- 94
2019-04-01 06:00:00 10.8 12 Sur 16 Sur 0.8 -- -- 93
2019-04-01 05:00:00 11.1 13 Sur 22 Sur 0.9 -- -- 90
2019-04-01 04:00:00 11.6 16 Sur 41 Sur 0.8 -- -- 84
2019-04-01 03:00:00 13 27 Sur 44 Sur 0 -- -- 72
2019-04-01 02:00:00 12.4 3 Sudoeste 10 Sudoeste 0 -- -- 83
2019-04-01 01:00:00 12.2 6 Sur 10 Sur 0 -- -- 88
2019-04-01 00:00:00 12.3 6 Sur 10 Sur 0 -- -- 88
2019-03-31 23:00:00 12.7 0 Calma -- -- 0 -- -- 88
2019-03-31 22:00:00 12.4 0 Calma -- -- 0 -- -- 89
2019-03-31 21:00:00 13.9 0 Calma 7 Nordeste 0 -- -- 87
2019-03-31 20:00:00 15.2 6 Nordeste 12 Norte 0 -- -- 79
2019-03-31 19:00:00 16.6 5 Norte 10 Noroeste 0 -- -- 73
2019-03-31 18:00:00 16.1 6 Norte 11 Noroeste 0 -- -- 67
2019-03-31 17:00:00 17.5 8 Nordeste 21 Nordeste 0 -- -- 65
2019-03-31 16:00:00 17.4 12 Nordeste 27 Nordeste 0 -- -- 71
2019-03-31 15:00:00 17.9 15 Nordeste 31 Nordeste 0 -- -- 66
2019-03-31 14:00:00 16.7 8 Noroeste 14 Noroeste 0 -- -- 67
2019-03-31 13:00:00 17.2 6 Noroeste 16 Nordeste 0 -- -- 64
2019-03-31 12:00:00 17.4 6 Nordeste 14 Nordeste 0 -- -- 62
2019-03-31 11:00:00 16.8 0 Calma 8 Sur 0 -- -- 65
2019-03-31 10:00:00 14.3 6 Sur 15 Sudoeste 0 -- -- 71
2019-03-31 09:00:00 10.3 7 Sudoeste 10 Sudoeste 0 -- -- 78
2019-03-31 08:00:00 10.3 3 Oeste 10 Sudoeste 0 -- -- 76
2019-03-31 07:00:00 11.6 0 Calma 7 Norte 0 -- -- 76
2019-03-31 06:00:00 10.9 4 Sur 10 Sur 0 -- -- 73
2019-03-31 05:00:00 8.2 8 Sudoeste 14 Sur 0 -- -- 86
2019-03-31 03:00:00 8.7 10 Sur 13 Sudoeste 0 -- -- 85
2019-03-31 01:00:00 9.3 11 Sudoeste 14 Sudoeste 0 -- -- 82
2019-03-31 00:00:00 10 13 Sudoeste 14 Sudoeste 0 -- -- 78
2019-03-30 23:00:00 10.8 9 Sudoeste 15 Sur 0 -- -- 75
2019-03-30 22:00:00 11.9 10 Sur 12 Sur 0 -- -- 72
2019-03-30 21:00:00 13.5 6 Sur 7 Sudoeste 0 -- -- 69
2019-03-30 20:00:00 15.2 4 Norte 13 Noroeste 0 -- -- 63
2019-03-30 19:00:00 17 6 Nordeste 17 Este 0 -- -- 49
2019-03-30 18:00:00 20.2 10 Este 26 Este 0 -- -- 39
2019-03-30 17:00:00 20.2 21 Este 33 Este 0 -- -- 39
2019-03-30 16:00:00 21.4 22 Este 34 Este 0 -- -- 39
2019-03-30 15:00:00 21.7 16 Nordeste 23 Nordeste 0 -- -- 40
2019-03-30 14:00:00 25.5 6 Sur 28 Sur 0 -- -- 34
2019-03-30 13:00:00 24.3 18 Sur 30 Sudoeste 0 -- -- 36
2019-03-30 12:00:00 22.3 15 Sur 35 Sur 0 -- -- 38
2019-03-30 11:00:00 20 24 Sur 51 Sur 0 -- -- 39
2019-03-30 10:00:00 18.1 24 Sur 48 Sur 0 -- -- 42
2019-03-30 09:00:00 15.7 30 Sur 60 Sur 0 -- -- 42
2019-03-30 08:00:00 14.4 31 Sur 62 Sudoeste 0 -- -- 43
2019-03-30 07:00:00 14.1 35 Sur 62 Sudoeste 0 -- -- 43
2019-03-30 06:00:00 14.8 35 Sur 65 Sur 0 -- -- 40
2019-03-30 05:00:00 15.7 36 Sur 67 Sur 0 -- -- 38
2019-03-30 04:00:00 16.2 39 Sur 66 Sur 0 -- -- 39
2019-03-30 03:00:00 16.4 35 Sur 75 Sur 0 -- -- 40
2019-03-30 02:00:00 16.9 41 Sur 71 Sur 0 -- -- 41
2019-03-30 01:00:00 17.2 35 Sur 69 Sur 0 -- -- 41
2019-03-30 00:00:00 17.6 41 Sur 68 Sur 0 -- -- 41
2019-03-29 23:00:00 18 36 Sur 66 Sur 0 -- -- 40
2019-03-29 22:00:00 18.3 30 Sur 52 Sur 0 -- -- 39
2019-03-29 21:00:00 13.4 11 Sur 26 Sur 0 -- -- 68
2019-03-29 20:00:00 13.3 0 Calma 6 Noroeste 0 -- -- 81
2019-03-29 19:00:00 14.9 4 Noroeste 13 Noroeste 0 -- -- 73
2019-03-29 18:00:00 17.2 6 Noroeste 15 Noroeste 0 -- -- 69
2019-03-29 17:00:00 17 7 Noroeste 22 Noroeste 0 -- -- 68
2019-03-29 16:00:00 16.8 9 Noroeste 19 Noroeste 0 -- -- 68
2019-03-29 15:00:00 17.1 14 Noroeste 27 Nordeste 0 -- -- 70
2019-03-29 14:00:00 16.6 12 Nordeste 31 Nordeste 0 -- -- 67
2019-03-29 13:00:00 14.8 21 Nordeste 28 Nordeste 0 -- -- 68
2019-03-29 12:00:00 16.6 13 Nordeste 23 Nordeste 0 -- -- 57
2019-03-29 11:00:00 15 10 Nordeste 19 Nordeste 0 -- -- 68
2019-03-29 10:00:00 12.9 3 Noroeste 12 Sur 0 -- -- 72
2019-03-29 09:00:00 10 10 Sur 17 Sur 0 -- -- 86
2019-03-29 08:00:00 6.2 13 Sur 18 Sur 0 -- -- 94
2019-03-29 07:00:00 5.4 13 Sur 20 Sur 0 -- -- 94
2019-03-29 06:00:00 5.6 15 Sur 19 Sur 0 -- -- 94
2019-03-29 05:00:00 5.8 16 Sur 18 Sur 0 -- -- 94
2019-03-29 04:00:00 6.2 15 Sur 17 Sur 0 -- -- 94
2019-03-29 03:00:00 6.5 14 Sur 16 Sur 0 -- -- 94
2019-03-29 02:00:00 6.6 11 Sur 14 Sur 0 -- -- 94
2019-03-29 01:00:00 7.2 10 Sur 13 Sur 0 -- -- 93
2019-03-29 00:00:00 7.7 9 Sur 12 Sur 0 -- -- 92
2019-03-28 23:00:00 8.3 9 Sur 13 Sur 0 -- -- 90
2019-03-28 22:00:00 9.2 8 Sur 10 Sur 0 -- -- 87
2019-03-28 21:00:00 10.2 5 Sur 13 Noroeste 0 -- -- 82
2019-03-28 20:00:00 11.6 8 Noroeste 13 Noroeste 0 -- -- 75
2019-03-28 19:00:00 12.9 6 Noroeste 14 Noroeste 0 -- -- 69
2019-03-28 18:00:00 14.6 9 Noroeste 18 Noroeste 0 -- -- 66
2019-03-28 17:00:00 14.9 12 Noroeste 17 Noroeste 0 -- -- 65
2019-03-28 16:00:00 14.9 9 Noroeste 18 Noroeste 0 -- -- 65
2019-03-28 15:00:00 15.4 12 Noroeste 19 Norte 0 -- -- 65
2019-03-28 14:00:00 14.5 14 Noroeste 18 Noroeste 0 -- -- 69
2019-03-28 13:00:00 14.7 13 Norte 18 Noroeste 0 -- -- 70
2019-03-28 12:00:00 14.3 12 Norte 22 Noroeste 0 -- -- 68
2019-03-28 11:00:00 16.6 14 Noroeste 22 Noroeste 0 -- -- 69
2019-03-28 10:00:00 13.6 5 Noroeste 16 Oeste 0 -- -- 76
2019-03-28 09:00:00 11.1 6 Sur 12 Sur 0 -- -- 96
2019-03-28 08:00:00 7.3 11 Sur 13 Sur 0 -- -- 97
2019-03-28 07:00:00 6.7 12 Sur 14 Sur 0 -- -- 96
2019-03-28 06:00:00 7 12 Sur 15 Sudoeste 0 -- -- 95
2019-03-28 05:00:00 7.5 11 Sur 15 Sudoeste 0 -- -- 95
2019-03-28 04:00:00 7.7 10 Sudoeste 15 Sudoeste 0 -- -- 93
2019-03-28 03:00:00 7.9 10 Sur 13 Sur 0 -- -- 93
2019-03-28 02:00:00 8.3 10 Sur 12 Sur 0 -- -- 92
2019-03-28 01:00:00 8.6 9 Sur 12 Sur 0 -- -- 89
2019-03-28 00:00:00 9.2 9 Sur 13 Sur 0 -- -- 87
2019-03-27 23:00:00 9.4 8 Sur 12 Sur 0 -- -- 83
2019-03-27 22:00:00 10 4 Sur 12 Noroeste 0 -- -- 78
2019-03-27 21:00:00 11.4 9 Noroeste 26 Noroeste 0 -- -- 75
2019-03-27 20:00:00 11.2 13 Noroeste 19 Noroeste 0 -- -- 73
2019-03-27 19:00:00 12 10 Noroeste 23 Noroeste 0 -- -- 69
2019-03-27 18:00:00 13.1 17 Noroeste 25 Noroeste 0 -- -- 65
2019-03-27 17:00:00 14 16 Noroeste 23 Noroeste 0 -- -- 62
2019-03-27 16:00:00 14.8 15 Noroeste 22 Noroeste 0 -- -- 61
2019-03-27 15:00:00 15.7 15 Noroeste 23 Noroeste 0 -- -- 59
2019-03-27 14:00:00 14.3 16 Noroeste 22 Noroeste 0 -- -- 61
2019-03-27 13:00:00 14.6 11 Noroeste 16 Noroeste 0 -- -- 65
2019-03-27 12:00:00 13 8 Noroeste 12 Norte 0 -- -- 68
2019-03-27 11:00:00 12.7 5 Norte 13 Norte 0 -- -- 70
2019-03-27 10:00:00 12 2 Noroeste 12 Sudoeste 0 -- -- 75
2019-03-27 09:00:00 8.5 9 Sur 14 Sudoeste 0 -- -- 95
2019-03-27 08:00:00 4.9 12 Sur 16 Sur 0 -- -- 97
2019-03-27 07:00:00 3.9 13 Sur 16 Sudoeste 0 -- -- 97
2019-03-27 06:00:00 4.1 13 Sur 16 Sudoeste 0 -- -- 96
2019-03-27 05:00:00 4.5 13 Sur 15 Sur 0 -- -- 96
2019-03-27 04:00:00 5 13 Sur 15 Sur 0 -- -- 96
2019-03-27 03:00:00 5.8 11 Sur 15 Sur 0 -- -- 95
2019-03-27 02:00:00 6.3 11 Sur 16 Sur 0 -- -- 93
2019-03-27 01:00:00 6.8 12 Sur 18 Sur 0 -- -- 93
2019-03-27 00:00:00 7.1 14 Sur 17 Sur 0 -- -- 91